<?xml version="1.0" encoding="UTF-8" standalone="no" ?>
<gpx xmlns="http://www.topografix.com/GPX/1/1" xmlns:xsi="http://www.w3.org/2001/XMLSchema-instance" xsi:schemaLocation="http://www.topografix.com/GPX/1/1 http://www.topografix.com/GPX/1/1/gpx.xsd" version="1.1" creator="VisuGPX - https://www.visugpx.com">
  <metadata>
    <name>2021-10-25-46-Mercues</name>
    <desc><![CDATA[Petite randonnée de 8 km sans difficulté. En empruntant l'ancienne voie ferrée vue sur le lot, les châteaux et les vignes.]]></desc>
  </metadata>
  <trk>
    <name><![CDATA[13849909-Mercues21]]></name>
    <trkseg>
      <trkpt lat="44.4922" lon="1.38177">
        <ele>146</ele>
        <time>2021-10-20T16:34:52Z</time>
      </trkpt>
      <trkpt lat="44.49189" lon="1.38232">
        <ele>146</ele>
        <time>2021-10-20T16:35:59Z</time>
      </trkpt>
      <trkpt lat="44.49269" lon="1.38285">
        <ele>146</ele>
        <time>2021-10-20T16:37:57Z</time>
      </trkpt>
      <trkpt lat="44.49322" lon="1.38283">
        <ele>148</ele>
        <time>2021-10-20T16:39:08Z</time>
      </trkpt>
      <trkpt lat="44.49423" lon="1.38319">
        <ele>144</ele>
        <time>2021-10-20T16:41:27Z</time>
      </trkpt>
      <trkpt lat="44.4953" lon="1.38383">
        <ele>145</ele>
        <time>2021-10-20T16:44:02Z</time>
      </trkpt>
      <trkpt lat="44.49551" lon="1.38416">
        <ele>146</ele>
        <time>2021-10-20T16:44:44Z</time>
      </trkpt>
      <trkpt lat="44.49486" lon="1.38528">
        <ele>143</ele>
        <time>2021-10-20T16:47:01Z</time>
      </trkpt>
      <trkpt lat="44.49473" lon="1.38629">
        <ele>134</ele>
        <time>2021-10-20T16:48:39Z</time>
      </trkpt>
      <trkpt lat="44.49483" lon="1.38694">
        <ele>130</ele>
        <time>2021-10-20T16:49:42Z</time>
      </trkpt>
      <trkpt lat="44.49483" lon="1.38716">
        <ele>129</ele>
        <time>2021-10-20T16:50:03Z</time>
      </trkpt>
      <trkpt lat="44.49435" lon="1.38584">
        <ele>131</ele>
        <time>2021-10-20T16:52:24Z</time>
      </trkpt>
      <trkpt lat="44.49389" lon="1.38506">
        <ele>133</ele>
        <time>2021-10-20T16:54:01Z</time>
      </trkpt>
      <trkpt lat="44.49323" lon="1.38425">
        <ele>132</ele>
        <time>2021-10-20T16:55:58Z</time>
      </trkpt>
      <trkpt lat="44.49251" lon="1.38368">
        <ele>135</ele>
        <time>2021-10-20T16:57:48Z</time>
      </trkpt>
      <trkpt lat="44.49172" lon="1.3834">
        <ele>134</ele>
        <time>2021-10-20T16:59:37Z</time>
      </trkpt>
      <trkpt lat="44.49091" lon="1.38309">
        <ele>133</ele>
        <time>2021-10-20T17:01:29Z</time>
      </trkpt>
      <trkpt lat="44.49037" lon="1.38274">
        <ele>136</ele>
        <time>2021-10-20T17:02:48Z</time>
      </trkpt>
      <trkpt lat="44.48981" lon="1.38198">
        <ele>142</ele>
        <time>2021-10-20T17:04:32Z</time>
      </trkpt>
      <trkpt lat="44.48949" lon="1.3814">
        <ele>144</ele>
        <time>2021-10-20T17:05:42Z</time>
      </trkpt>
      <trkpt lat="44.48926" lon="1.38017">
        <ele>142</ele>
        <time>2021-10-20T17:07:43Z</time>
      </trkpt>
      <trkpt lat="44.48922" lon="1.37856">
        <ele>139</ele>
        <time>2021-10-20T17:10:17Z</time>
      </trkpt>
      <trkpt lat="44.48925" lon="1.37511">
        <ele>135</ele>
        <time>2021-10-20T17:15:45Z</time>
      </trkpt>
      <trkpt lat="44.48918" lon="1.37377">
        <ele>135</ele>
        <time>2021-10-20T17:17:53Z</time>
      </trkpt>
      <trkpt lat="44.48887" lon="1.37274">
        <ele>135</ele>
        <time>2021-10-20T17:19:39Z</time>
      </trkpt>
      <trkpt lat="44.48789" lon="1.37088">
        <ele>132</ele>
        <time>2021-10-20T17:23:19Z</time>
      </trkpt>
      <trkpt lat="44.48726" lon="1.36975">
        <ele>130</ele>
        <time>2021-10-20T17:25:36Z</time>
      </trkpt>
      <trkpt lat="44.48666" lon="1.36902">
        <ele>127</ele>
        <time>2021-10-20T17:27:22Z</time>
      </trkpt>
      <trkpt lat="44.48604" lon="1.36858">
        <ele>129</ele>
        <time>2021-10-20T17:28:55Z</time>
      </trkpt>
      <trkpt lat="44.48501" lon="1.36815">
        <ele>124</ele>
        <time>2021-10-20T17:31:18Z</time>
      </trkpt>
      <trkpt lat="44.48381" lon="1.36766">
        <ele>123</ele>
        <time>2021-10-20T17:34:05Z</time>
      </trkpt>
      <trkpt lat="44.48268" lon="1.36719">
        <ele>124</ele>
        <time>2021-10-20T17:36:42Z</time>
      </trkpt>
      <trkpt lat="44.48208" lon="1.36678">
        <ele>122</ele>
        <time>2021-10-20T17:38:11Z</time>
      </trkpt>
      <trkpt lat="44.48161" lon="1.36617">
        <ele>120</ele>
        <time>2021-10-20T17:39:37Z</time>
      </trkpt>
      <trkpt lat="44.48131" lon="1.36564">
        <ele>119</ele>
        <time>2021-10-20T17:40:41Z</time>
      </trkpt>
      <trkpt lat="44.48115" lon="1.36523">
        <ele>116</ele>
        <time>2021-10-20T17:41:26Z</time>
      </trkpt>
      <trkpt lat="44.48084" lon="1.36431">
        <ele>109</ele>
        <time>2021-10-20T17:43:03Z</time>
      </trkpt>
      <trkpt lat="44.48031" lon="1.3628">
        <ele>108</ele>
        <time>2021-10-20T17:45:43Z</time>
      </trkpt>
      <trkpt lat="44.48016" lon="1.36289">
        <ele>108</ele>
        <time>2021-10-20T17:46:05Z</time>
      </trkpt>
      <trkpt lat="44.48027" lon="1.36305">
        <ele>108</ele>
        <time>2021-10-20T17:46:26Z</time>
      </trkpt>
      <trkpt lat="44.48046" lon="1.36292">
        <ele>107</ele>
        <time>2021-10-20T17:46:54Z</time>
      </trkpt>
      <trkpt lat="44.48047" lon="1.36272">
        <ele>107</ele>
        <time>2021-10-20T17:47:13Z</time>
      </trkpt>
      <trkpt lat="44.4801" lon="1.36162">
        <ele>110</ele>
        <time>2021-10-20T17:49:09Z</time>
      </trkpt>
      <trkpt lat="44.47995" lon="1.36049">
        <ele>110</ele>
        <time>2021-10-20T17:50:58Z</time>
      </trkpt>
      <trkpt lat="44.48001" lon="1.35962">
        <ele>109</ele>
        <time>2021-10-20T17:52:21Z</time>
      </trkpt>
      <trkpt lat="44.48033" lon="1.35839">
        <ele>111</ele>
        <time>2021-10-20T17:54:26Z</time>
      </trkpt>
      <trkpt lat="44.48091" lon="1.35674">
        <ele>115</ele>
        <time>2021-10-20T17:57:21Z</time>
      </trkpt>
      <trkpt lat="44.48085" lon="1.35674">
        <ele>116</ele>
        <time>2021-10-20T17:57:29Z</time>
      </trkpt>
      <trkpt lat="44.4803" lon="1.35812">
        <ele>111</ele>
        <time>2021-10-20T18:00:00Z</time>
      </trkpt>
      <trkpt lat="44.48001" lon="1.35899">
        <ele>110</ele>
        <time>2021-10-20T18:01:31Z</time>
      </trkpt>
      <trkpt lat="44.47988" lon="1.35966">
        <ele>109</ele>
        <time>2021-10-20T18:02:37Z</time>
      </trkpt>
      <trkpt lat="44.47987" lon="1.36068">
        <ele>110</ele>
        <time>2021-10-20T18:04:14Z</time>
      </trkpt>
      <trkpt lat="44.47993" lon="1.36144">
        <ele>110</ele>
        <time>2021-10-20T18:05:27Z</time>
      </trkpt>
      <trkpt lat="44.4801" lon="1.36218">
        <ele>110</ele>
        <time>2021-10-20T18:06:41Z</time>
      </trkpt>
      <trkpt lat="44.48031" lon="1.36273">
        <ele>108</ele>
        <time>2021-10-20T18:07:41Z</time>
      </trkpt>
      <trkpt lat="44.48083" lon="1.36422">
        <ele>108</ele>
        <time>2021-10-20T18:10:19Z</time>
      </trkpt>
      <trkpt lat="44.48121" lon="1.36528">
        <ele>116</ele>
        <time>2021-10-20T18:12:12Z</time>
      </trkpt>
      <trkpt lat="44.48134" lon="1.36559">
        <ele>118</ele>
        <time>2021-10-20T18:12:46Z</time>
      </trkpt>
      <trkpt lat="44.48143" lon="1.36578">
        <ele>119</ele>
        <time>2021-10-20T18:13:07Z</time>
      </trkpt>
      <trkpt lat="44.48178" lon="1.36577">
        <ele>116</ele>
        <time>2021-10-20T18:13:54Z</time>
      </trkpt>
      <trkpt lat="44.48198" lon="1.366">
        <ele>116</ele>
        <time>2021-10-20T18:14:29Z</time>
      </trkpt>
      <trkpt lat="44.48218" lon="1.36643">
        <ele>118</ele>
        <time>2021-10-20T18:15:18Z</time>
      </trkpt>
      <trkpt lat="44.48244" lon="1.36623">
        <ele>114</ele>
        <time>2021-10-20T18:15:57Z</time>
      </trkpt>
      <trkpt lat="44.48331" lon="1.36719">
        <ele>120</ele>
        <time>2021-10-20T18:18:25Z</time>
      </trkpt>
      <trkpt lat="44.4843" lon="1.36763">
        <ele>119</ele>
        <time>2021-10-20T18:20:44Z</time>
      </trkpt>
      <trkpt lat="44.48505" lon="1.36777">
        <ele>118</ele>
        <time>2021-10-20T18:22:24Z</time>
      </trkpt>
      <trkpt lat="44.48598" lon="1.36806">
        <ele>122</ele>
        <time>2021-10-20T18:24:32Z</time>
      </trkpt>
      <trkpt lat="44.48702" lon="1.36824">
        <ele>119</ele>
        <time>2021-10-20T18:26:51Z</time>
      </trkpt>
      <trkpt lat="44.48804" lon="1.36827">
        <ele>119</ele>
        <time>2021-10-20T18:29:08Z</time>
      </trkpt>
      <trkpt lat="44.488" lon="1.3691">
        <ele>128</ele>
        <time>2021-10-20T18:30:27Z</time>
      </trkpt>
      <trkpt lat="44.4885" lon="1.36952">
        <ele>133</ele>
        <time>2021-10-20T18:31:45Z</time>
      </trkpt>
      <trkpt lat="44.48876" lon="1.36997">
        <ele>136</ele>
        <time>2021-10-20T18:32:40Z</time>
      </trkpt>
      <trkpt lat="44.48997" lon="1.36986">
        <ele>140</ele>
        <time>2021-10-20T18:35:22Z</time>
      </trkpt>
      <trkpt lat="44.49063" lon="1.37001">
        <ele>144</ele>
        <time>2021-10-20T18:36:51Z</time>
      </trkpt>
      <trkpt lat="44.49079" lon="1.37035">
        <ele>146</ele>
        <time>2021-10-20T18:37:30Z</time>
      </trkpt>
      <trkpt lat="44.491" lon="1.37051">
        <ele>147</ele>
        <time>2021-10-20T18:38:01Z</time>
      </trkpt>
      <trkpt lat="44.49166" lon="1.37161">
        <ele>146</ele>
        <time>2021-10-20T18:40:18Z</time>
      </trkpt>
      <trkpt lat="44.49203" lon="1.37103">
        <ele>151</ele>
        <time>2021-10-20T18:41:32Z</time>
      </trkpt>
      <trkpt lat="44.49298" lon="1.37172">
        <ele>156</ele>
        <time>2021-10-20T18:43:55Z</time>
      </trkpt>
      <trkpt lat="44.49384" lon="1.37277">
        <ele>156</ele>
        <time>2021-10-20T18:46:27Z</time>
      </trkpt>
      <trkpt lat="44.49494" lon="1.37369">
        <ele>158</ele>
        <time>2021-10-20T18:49:18Z</time>
      </trkpt>
      <trkpt lat="44.49435" lon="1.37491">
        <ele>148</ele>
        <time>2021-10-20T18:51:39Z</time>
      </trkpt>
      <trkpt lat="44.49369" lon="1.37618">
        <ele>142</ele>
        <time>2021-10-20T18:54:08Z</time>
      </trkpt>
      <trkpt lat="44.49408" lon="1.37709">
        <ele>145</ele>
        <time>2021-10-20T18:55:49Z</time>
      </trkpt>
      <trkpt lat="44.49433" lon="1.3782">
        <ele>145</ele>
        <time>2021-10-20T18:57:40Z</time>
      </trkpt>
      <trkpt lat="44.49384" lon="1.37887">
        <ele>143</ele>
        <time>2021-10-20T18:59:11Z</time>
      </trkpt>
      <trkpt lat="44.49338" lon="1.37973">
        <ele>143</ele>
        <time>2021-10-20T19:00:54Z</time>
      </trkpt>
      <trkpt lat="44.49292" lon="1.38056">
        <ele>145</ele>
        <time>2021-10-20T19:02:34Z</time>
      </trkpt>
      <trkpt lat="44.49253" lon="1.3813">
        <ele>146</ele>
        <time>2021-10-20T19:04:01Z</time>
      </trkpt>
      <trkpt lat="44.49234" lon="1.38163">
        <ele>146</ele>
        <time>2021-10-20T19:04:42Z</time>
      </trkpt>
    </trkseg>
  </trk>
</gpx>